sensor_id;sensor_type;location;lat;lon;timestamp;P1;durP1;ratioP1;P2;durP2;ratioP2
42124;SDS011;27787;44.594;11.046;2023-05-24T00:02:43;15.25;;;9.73;;
42124;SDS011;27787;44.594;11.046;2023-05-24T00:05:28;17.67;;;9.47;;
42124;SDS011;27787;44.594;11.046;2023-05-24T00:08:13;15.80;;;9.32;;
42124;SDS011;27787;44.594;11.046;2023-05-24T00:13:43;14.07;;;7.82;;
42124;SDS011;27787;44.594;11.046;2023-05-24T00:16:28;13.07;;;8.43;;
42124;SDS011;27787;44.594;11.046;2023-05-24T00:19:13;14.50;;;9.23;;
42124;SDS011;27787;44.594;11.046;2023-05-24T00:22:00;14.82;;;8.30;;
42124;SDS011;27787;44.594;11.046;2023-05-24T00:24:46;13.57;;;7.10;;
42124;SDS011;27787;44.594;11.046;2023-05-24T00:27:31;10.38;;;7.43;;
42124;SDS011;27787;44.594;11.046;2023-05-24T00:30:16;12.70;;;8.32;;
42124;SDS011;27787;44.594;11.046;2023-05-24T00:33:00;11.38;;;7.50;;
42124;SDS011;27787;44.594;11.046;2023-05-24T00:35:47;13.73;;;8.63;;
42124;SDS011;27787;44.594;11.046;2023-05-24T00:38:32;12.60;;;7.78;;
42124;SDS011;27787;44.594;11.046;2023-05-24T00:41:16;17.58;;;7.65;;
42124;SDS011;27787;44.594;11.046;2023-05-24T00:44:01;11.90;;;7.97;;
42124;SDS011;27787;44.594;11.046;2023-05-24T00:46:46;14.10;;;8.82;;
42124;SDS011;27787;44.594;11.046;2023-05-24T00:49:30;18.23;;;9.03;;
42124;SDS011;27787;44.594;11.046;2023-05-24T00:52:15;13.82;;;9.52;;
42124;SDS011;27787;44.594;11.046;2023-05-24T00:55:01;14.65;;;8.65;;
42124;SDS011;27787;44.594;11.046;2023-05-24T00:57:45;13.30;;;8.15;;
42124;SDS011;27787;44.594;11.046;2023-05-24T01:00:30;15.25;;;8.95;;
42124;SDS011;27787;44.594;11.046;2023-05-24T01:03:15;13.00;;;8.50;;
42124;SDS011;27787;44.594;11.046;2023-05-24T01:06:01;13.73;;;8.35;;
42124;SDS011;27787;44.594;11.046;2023-05-24T01:12:19;14.30;;;8.50;;
42124;SDS011;27787;44.594;11.046;2023-05-24T01:15:52;16.20;;;8.73;;
42124;SDS011;27787;44.594;11.046;2023-05-24T01:18:39;13.63;;;9.50;;
42124;SDS011;27787;44.594;11.046;2023-05-24T01:21:45;22.85;;;10.43;;
42124;SDS011;27787;44.594;11.046;2023-05-24T01:24:58;15.45;;;9.60;;
42124;SDS011;27787;44.594;11.046;2023-05-24T01:27:46;16.38;;;9.57;;
42124;SDS011;27787;44.594;11.046;2023-05-24T01:30:32;12.63;;;9.20;;
42124;SDS011;27787;44.594;11.046;2023-05-24T01:33:17;15.13;;;8.70;;
42124;SDS011;27787;44.594;11.046;2023-05-24T01:36:01;19.10;;;11.23;;
42124;SDS011;27787;44.594;11.046;2023-05-24T01:38:46;14.97;;;10.00;;
42124;SDS011;27787;44.594;11.046;2023-05-24T01:41:38;18.25;;;9.15;;
42124;SDS011;27787;44.594;11.046;2023-05-24T01:44:28;17.42;;;10.38;;
42124;SDS011;27787;44.594;11.046;2023-05-24T01:50:25;20.85;;;11.15;;
42124;SDS011;27787;44.594;11.046;2023-05-24T01:53:17;20.55;;;11.30;;
42124;SDS011;27787;44.594;11.046;2023-05-24T01:56:04;21.67;;;10.05;;
42124;SDS011;27787;44.594;11.046;2023-05-24T01:58:50;15.68;;;10.35;;
42124;SDS011;27787;44.594;11.046;2023-05-24T02:01:37;19.02;;;11.30;;
42124;SDS011;27787;44.594;11.046;2023-05-24T02:04:21;17.83;;;10.50;;
42124;SDS011;27787;44.594;11.046;2023-05-24T02:07:07;17.05;;;10.52;;
42124;SDS011;27787;44.594;11.046;2023-05-24T02:09:52;16.27;;;10.47;;
42124;SDS011;27787;44.594;11.046;2023-05-24T02:12:35;18.63;;;11.73;;
42124;SDS011;27787;44.594;11.046;2023-05-24T02:15:20;17.13;;;11.27;;
42124;SDS011;27787;44.594;11.046;2023-05-24T02:18:05;19.50;;;11.13;;
42124;SDS011;27787;44.594;11.046;2023-05-24T02:20:51;16.23;;;10.95;;
42124;SDS011;27787;44.594;11.046;2023-05-24T02:23:35;21.97;;;11.80;;
42124;SDS011;27787;44.594;11.046;2023-05-24T02:26:20;16.55;;;10.82;;
42124;SDS011;27787;44.594;11.046;2023-05-24T02:29:05;19.13;;;11.90;;
42124;SDS011;27787;44.594;11.046;2023-05-24T02:31:49;17.13;;;10.98;;
42124;SDS011;27787;44.594;11.046;2023-05-24T02:34:38;21.70;;;11.60;;
42124;SDS011;27787;44.594;11.046;2023-05-24T02:37:23;23.27;;;12.73;;
42124;SDS011;27787;44.594;11.046;2023-05-24T02:40:08;19.38;;;11.40;;
42124;SDS011;27787;44.594;11.046;2023-05-24T02:42:52;19.95;;;12.25;;
42124;SDS011;27787;44.594;11.046;2023-05-24T02:45:36;20.73;;;12.50;;
42124;SDS011;27787;44.594;11.046;2023-05-24T02:48:21;21.70;;;12.90;;
42124;SDS011;27787;44.594;11.046;2023-05-24T02:51:05;18.63;;;11.65;;
42124;SDS011;27787;44.594;11.046;2023-05-24T02:53:50;23.27;;;12.23;;
42124;SDS011;27787;44.594;11.046;2023-05-24T02:56:33;20.65;;;12.00;;
42124;SDS011;27787;44.594;11.046;2023-05-24T02:59:18;23.10;;;12.27;;
42124;SDS011;27787;44.594;11.046;2023-05-24T03:02:04;25.85;;;12.80;;
42124;SDS011;27787;44.594;11.046;2023-05-24T03:04:48;20.50;;;12.20;;
42124;SDS011;27787;44.594;11.046;2023-05-24T03:07:33;21.57;;;13.40;;
42124;SDS011;27787;44.594;11.046;2023-05-24T03:10:17;16.95;;;11.52;;
42124;SDS011;27787;44.594;11.046;2023-05-24T03:13:02;27.87;;;12.27;;
42124;SDS011;27787;44.594;11.046;2023-05-24T03:15:46;23.33;;;14.37;;
42124;SDS011;27787;44.594;11.046;2023-05-24T03:18:31;21.65;;;12.35;;
42124;SDS011;27787;44.594;11.046;2023-05-24T03:21:16;17.38;;;12.13;;
42124;SDS011;27787;44.594;11.046;2023-05-24T03:24:03;17.63;;;11.50;;
42124;SDS011;27787;44.594;11.046;2023-05-24T03:26:48;21.48;;;11.63;;
42124;SDS011;27787;44.594;11.046;2023-05-24T03:32:18;19.95;;;11.68;;
42124;SDS011;27787;44.594;11.046;2023-05-24T03:35:02;21.00;;;11.60;;
42124;SDS011;27787;44.594;11.046;2023-05-24T03:37:47;16.55;;;10.93;;
42124;SDS011;27787;44.594;11.046;2023-05-24T03:40:31;16.42;;;10.75;;
42124;SDS011;27787;44.594;11.046;2023-05-24T03:43:21;15.85;;;11.02;;
42124;SDS011;27787;44.594;11.046;2023-05-24T03:46:11;17.50;;;11.27;;
42124;SDS011;27787;44.594;11.046;2023-05-24T03:48:55;20.90;;;12.10;;
42124;SDS011;27787;44.594;11.046;2023-05-24T03:51:39;18.13;;;11.13;;
42124;SDS011;27787;44.594;11.046;2023-05-24T03:54:23;18.75;;;10.43;;
42124;SDS011;27787;44.594;11.046;2023-05-24T03:57:07;17.55;;;11.27;;
42124;SDS011;27787;44.594;11.046;2023-05-24T03:59:53;21.77;;;12.73;;
42124;SDS011;27787;44.594;11.046;2023-05-24T04:02:37;22.27;;;13.98;;
42124;SDS011;27787;44.594;11.046;2023-05-24T04:05:22;22.47;;;12.20;;
42124;SDS011;27787;44.594;11.046;2023-05-24T04:08:11;19.55;;;10.57;;
42124;SDS011;27787;44.594;11.046;2023-05-24T04:13:43;13.65;;;8.82;;
42124;SDS011;27787;44.594;11.046;2023-05-24T04:16:28;20.60;;;9.23;;
42124;SDS011;27787;44.594;11.046;2023-05-24T04:19:17;19.35;;;10.57;;
42124;SDS011;27787;44.594;11.046;2023-05-24T04:22:00;18.35;;;10.65;;
42124;SDS011;27787;44.594;11.046;2023-05-24T04:24:44;15.70;;;10.23;;
42124;SDS011;27787;44.594;11.046;2023-05-24T04:27:29;15.70;;;8.13;;
42124;SDS011;27787;44.594;11.046;2023-05-24T04:30:14;18.50;;;7.95;;
42124;SDS011;27787;44.594;11.046;2023-05-24T04:33:01;17.33;;;7.05;;
42124;SDS011;27787;44.594;11.046;2023-05-24T04:35:47;19.35;;;7.75;;
42124;SDS011;27787;44.594;11.046;2023-05-24T04:38:31;16.70;;;8.95;;
42124;SDS011;27787;44.594;11.046;2023-05-24T04:41:17;13.38;;;8.50;;
42124;SDS011;27787;44.594;11.046;2023-05-24T04:44:02;20.33;;;9.20;;
42124;SDS011;27787;44.594;11.046;2023-05-24T04:46:46;15.05;;;9.35;;
42124;SDS011;27787;44.594;11.046;2023-05-24T04:49:30;17.93;;;8.57;;
42124;SDS011;27787;44.594;11.046;2023-05-24T04:52:15;15.80;;;8.68;;
42124;SDS011;27787;44.594;11.046;2023-05-24T05:01:01;14.13;;;8.77;;
42124;SDS011;27787;44.594;11.046;2023-05-24T05:03:45;13.77;;;8.75;;
42124;SDS011;27787;44.594;11.046;2023-05-24T05:06:29;20.63;;;8.70;;
42124;SDS011;27787;44.594;11.046;2023-05-24T05:09:14;13.35;;;8.00;;
42124;SDS011;27787;44.594;11.046;2023-05-24T05:11:58;13.85;;;9.02;;
42124;SDS011;27787;44.594;11.046;2023-05-24T05:14:42;15.73;;;9.60;;
42124;SDS011;27787;44.594;11.046;2023-05-24T05:17:26;13.93;;;8.88;;
42124;SDS011;27787;44.594;11.046;2023-05-24T05:20:10;19.15;;;9.07;;
42124;SDS011;27787;44.594;11.046;2023-05-24T05:22:55;12.65;;;8.27;;
42124;SDS011;27787;44.594;11.046;2023-05-24T05:25:39;20.47;;;9.80;;
42124;SDS011;27787;44.594;11.046;2023-05-24T05:28:23;21.85;;;8.68;;
42124;SDS011;27787;44.594;11.046;2023-05-24T05:31:08;15.20;;;8.70;;
42124;SDS011;27787;44.594;11.046;2023-05-24T05:33:52;15.32;;;9.00;;
42124;SDS011;27787;44.594;11.046;2023-05-24T05:36:36;15.80;;;9.60;;
42124;SDS011;27787;44.594;11.046;2023-05-24T05:39:24;17.02;;;8.88;;
42124;SDS011;27787;44.594;11.046;2023-05-24T05:42:07;16.42;;;9.05;;
42124;SDS011;27787;44.594;11.046;2023-05-24T05:44:51;13.98;;;8.13;;
42124;SDS011;27787;44.594;11.046;2023-05-24T05:47:35;15.60;;;8.30;;
42124;SDS011;27787;44.594;11.046;2023-05-24T05:50:19;14.32;;;8.55;;
42124;SDS011;27787;44.594;11.046;2023-05-24T05:53:03;21.85;;;8.25;;
42124;SDS011;27787;44.594;11.046;2023-05-24T05:55:48;16.70;;;8.93;;
42124;SDS011;27787;44.594;11.046;2023-05-24T05:58:32;13.75;;;8.98;;
42124;SDS011;27787;44.594;11.046;2023-05-24T06:01:16;16.48;;;8.93;;
42124;SDS011;27787;44.594;11.046;2023-05-24T06:04:00;15.02;;;8.68;;
42124;SDS011;27787;44.594;11.046;2023-05-24T06:06:45;15.32;;;8.52;;
42124;SDS011;27787;44.594;11.046;2023-05-24T06:09:31;23.13;;;9.23;;
42124;SDS011;27787;44.594;11.046;2023-05-24T06:12:16;13.38;;;8.60;;
42124;SDS011;27787;44.594;11.046;2023-05-24T06:15:00;13.05;;;8.75;;
42124;SDS011;27787;44.594;11.046;2023-05-24T06:17:44;18.63;;;7.90;;
42124;SDS011;27787;44.594;11.046;2023-05-24T06:20:30;13.43;;;8.38;;
42124;SDS011;27787;44.594;11.046;2023-05-24T06:23:14;16.00;;;8.55;;
42124;SDS011;27787;44.594;11.046;2023-05-24T06:25:58;14.68;;;8.38;;
42124;SDS011;27787;44.594;11.046;2023-05-24T06:28:44;19.15;;;8.45;;
42124;SDS011;27787;44.594;11.046;2023-05-24T06:31:28;15.90;;;9.73;;
42124;SDS011;27787;44.594;11.046;2023-05-24T06:34:13;14.65;;;8.82;;
42124;SDS011;27787;44.594;11.046;2023-05-24T06:37:00;15.45;;;8.98;;
42124;SDS011;27787;44.594;11.046;2023-05-24T06:39:45;18.60;;;9.63;;
42124;SDS011;27787;44.594;11.046;2023-05-24T06:42:29;17.02;;;9.48;;
42124;SDS011;27787;44.594;11.046;2023-05-24T06:45:15;17.88;;;9.65;;
42124;SDS011;27787;44.594;11.046;2023-05-24T06:47:59;18.27;;;10.07;;
42124;SDS011;27787;44.594;11.046;2023-05-24T06:50:47;14.07;;;10.02;;
42124;SDS011;27787;44.594;11.046;2023-05-24T06:53:31;16.07;;;9.47;;
42124;SDS011;27787;44.594;11.046;2023-05-24T06:56:15;17.38;;;10.45;;
42124;SDS011;27787;44.594;11.046;2023-05-24T06:59:00;21.77;;;10.48;;
42124;SDS011;27787;44.594;11.046;2023-05-24T07:01:44;14.27;;;8.80;;
42124;SDS011;27787;44.594;11.046;2023-05-24T07:04:29;17.05;;;9.70;;
42124;SDS011;27787;44.594;11.046;2023-05-24T07:07:13;14.80;;;9.53;;
42124;SDS011;27787;44.594;11.046;2023-05-24T07:09:57;12.82;;;8.98;;
42124;SDS011;27787;44.594;11.046;2023-05-24T07:12:42;15.18;;;9.00;;
42124;SDS011;27787;44.594;11.046;2023-05-24T07:15:26;19.42;;;9.10;;
42124;SDS011;27787;44.594;11.046;2023-05-24T07:18:14;15.68;;;8.77;;
42124;SDS011;27787;44.594;11.046;2023-05-24T07:20:59;10.20;;;7.10;;
42124;SDS011;27787;44.594;11.046;2023-05-24T07:23:43;12.43;;;6.80;;
42124;SDS011;27787;44.594;11.046;2023-05-24T07:26:27;14.40;;;7.47;;
42124;SDS011;27787;44.594;11.046;2023-05-24T07:29:11;11.20;;;6.43;;
42124;SDS011;27787;44.594;11.046;2023-05-24T07:31:55;9.52;;;5.70;;
42124;SDS011;27787;44.594;11.046;2023-05-24T07:37:25;10.10;;;6.88;;
42124;SDS011;27787;44.594;11.046;2023-05-24T07:40:09;12.30;;;7.10;;
42124;SDS011;27787;44.594;11.046;2023-05-24T07:42:55;11.25;;;6.60;;
42124;SDS011;27787;44.594;11.046;2023-05-24T07:45:39;11.57;;;6.25;;
42124;SDS011;27787;44.594;11.046;2023-05-24T07:48:23;15.07;;;7.53;;
42124;SDS011;27787;44.594;11.046;2023-05-24T07:51:08;15.02;;;6.68;;
42124;SDS011;27787;44.594;11.046;2023-05-24T07:53:53;11.07;;;6.90;;
42124;SDS011;27787;44.594;11.046;2023-05-24T07:56:37;9.83;;;7.00;;
42124;SDS011;27787;44.594;11.046;2023-05-24T07:59:21;9.93;;;5.95;;
42124;SDS011;27787;44.594;11.046;2023-05-24T08:02:06;12.07;;;6.97;;
42124;SDS011;27787;44.594;11.046;2023-05-24T08:04:52;11.88;;;6.95;;
42124;SDS011;27787;44.594;11.046;2023-05-24T08:07:36;10.50;;;6.20;;
42124;SDS011;27787;44.594;11.046;2023-05-24T08:10:22;11.65;;;6.65;;
42124;SDS011;27787;44.594;11.046;2023-05-24T08:13:06;19.50;;;6.80;;
42124;SDS011;27787;44.594;11.046;2023-05-24T08:15:50;12.10;;;7.00;;
42124;SDS011;27787;44.594;11.046;2023-05-24T08:18:34;15.82;;;6.93;;
42124;SDS011;27787;44.594;11.046;2023-05-24T08:21:19;14.40;;;7.60;;
42124;SDS011;27787;44.594;11.046;2023-05-24T08:24:03;14.40;;;7.28;;
42124;SDS011;27787;44.594;11.046;2023-05-24T08:26:47;11.50;;;7.18;;
42124;SDS011;27787;44.594;11.046;2023-05-24T08:29:32;12.15;;;7.07;;
42124;SDS011;27787;44.594;11.046;2023-05-24T08:32:17;17.73;;;6.72;;
42124;SDS011;27787;44.594;11.046;2023-05-24T08:35:01;11.00;;;7.00;;
42124;SDS011;27787;44.594;11.046;2023-05-24T08:37:46;9.95;;;7.07;;
42124;SDS011;27787;44.594;11.046;2023-05-24T08:40:30;13.50;;;6.87;;
42124;SDS011;27787;44.594;11.046;2023-05-24T08:43:15;9.77;;;7.03;;
42124;SDS011;27787;44.594;11.046;2023-05-24T08:45:59;11.83;;;8.10;;
42124;SDS011;27787;44.594;11.046;2023-05-24T08:48:45;10.38;;;7.00;;
42124;SDS011;27787;44.594;11.046;2023-05-24T08:51:30;10.70;;;7.32;;
42124;SDS011;27787;44.594;11.046;2023-05-24T08:54:14;11.15;;;7.57;;
42124;SDS011;27787;44.594;11.046;2023-05-24T08:56:59;18.50;;;8.98;;
42124;SDS011;27787;44.594;11.046;2023-05-24T08:59:43;15.80;;;8.15;;
42124;SDS011;27787;44.594;11.046;2023-05-24T09:02:27;17.55;;;9.20;;
42124;SDS011;27787;44.594;11.046;2023-05-24T09:05:13;12.82;;;8.48;;
42124;SDS011;27787;44.594;11.046;2023-05-24T09:08:04;20.05;;;8.25;;
42124;SDS011;27787;44.594;11.046;2023-05-24T09:10:48;16.20;;;8.93;;
42124;SDS011;27787;44.594;11.046;2023-05-24T09:13:33;16.25;;;9.48;;
42124;SDS011;27787;44.594;11.046;2023-05-24T09:16:18;14.48;;;9.02;;
42124;SDS011;27787;44.594;11.046;2023-05-24T09:19:02;13.88;;;8.60;;
42124;SDS011;27787;44.594;11.046;2023-05-24T09:21:47;18.00;;;9.37;;
42124;SDS011;27787;44.594;11.046;2023-05-24T09:24:39;14.73;;;9.77;;
42124;SDS011;27787;44.594;11.046;2023-05-24T09:27:24;15.77;;;9.48;;
42124;SDS011;27787;44.594;11.046;2023-05-24T09:30:09;14.70;;;9.38;;
42124;SDS011;27787;44.594;11.046;2023-05-24T09:32:58;15.10;;;9.32;;
42124;SDS011;27787;44.594;11.046;2023-05-24T09:35:43;13.68;;;9.48;;
42124;SDS011;27787;44.594;11.046;2023-05-24T09:38:29;13.55;;;8.80;;
42124;SDS011;27787;44.594;11.046;2023-05-24T09:41:13;13.83;;;9.27;;
42124;SDS011;27787;44.594;11.046;2023-05-24T09:43:57;15.73;;;10.30;;
42124;SDS011;27787;44.594;11.046;2023-05-24T09:46:41;14.52;;;9.45;;
42124;SDS011;27787;44.594;11.046;2023-05-24T09:49:26;19.27;;;8.97;;
42124;SDS011;27787;44.594;11.046;2023-05-24T09:52:12;13.13;;;8.80;;
42124;SDS011;27787;44.594;11.046;2023-05-24T09:54:57;13.80;;;8.10;;
42124;SDS011;27787;44.594;11.046;2023-05-24T09:57:48;15.07;;;8.83;;
42124;SDS011;27787;44.594;11.046;2023-05-24T10:00:39;13.35;;;8.88;;
42124;SDS011;27787;44.594;11.046;2023-05-24T10:03:24;14.65;;;9.32;;
42124;SDS011;27787;44.594;11.046;2023-05-24T10:06:09;15.05;;;8.45;;
42124;SDS011;27787;44.594;11.046;2023-05-24T10:08:54;12.48;;;8.55;;
42124;SDS011;27787;44.594;11.046;2023-05-24T10:11:39;13.88;;;8.05;;
42124;SDS011;27787;44.594;11.046;2023-05-24T10:14:24;16.88;;;9.48;;
42124;SDS011;27787;44.594;11.046;2023-05-24T10:17:09;12.18;;;8.60;;
42124;SDS011;27787;44.594;11.046;2023-05-24T10:19:53;14.00;;;8.47;;
42124;SDS011;27787;44.594;11.046;2023-05-24T10:22:45;18.47;;;9.13;;
42124;SDS011;27787;44.594;11.046;2023-05-24T10:25:34;21.08;;;9.10;;
42124;SDS011;27787;44.594;11.046;2023-05-24T10:28:24;12.32;;;8.73;;
42124;SDS011;27787;44.594;11.046;2023-05-24T10:31:09;15.48;;;8.73;;
42124;SDS011;27787;44.594;11.046;2023-05-24T10:34:02;17.13;;;8.95;;
42124;SDS011;27787;44.594;11.046;2023-05-24T10:36:48;15.70;;;9.50;;
42124;SDS011;27787;44.594;11.046;2023-05-24T10:39:33;19.17;;;9.90;;
42124;SDS011;27787;44.594;11.046;2023-05-24T10:42:18;14.55;;;9.40;;
42124;SDS011;27787;44.594;11.046;2023-05-24T10:45:48;13.77;;;8.40;;
42124;SDS011;27787;44.594;11.046;2023-05-24T10:50:59;16.98;;;9.65;;
42124;SDS011;27787;44.594;11.046;2023-05-24T10:53:44;17.17;;;9.10;;
42124;SDS011;27787;44.594;11.046;2023-05-24T10:56:28;15.40;;;9.43;;
42124;SDS011;27787;44.594;11.046;2023-05-24T10:59:20;17.58;;;9.63;;
42124;SDS011;27787;44.594;11.046;2023-05-24T11:02:09;14.43;;;10.60;;
42124;SDS011;27787;44.594;11.046;2023-05-24T11:04:57;13.13;;;8.55;;
42124;SDS011;27787;44.594;11.046;2023-05-24T11:07:48;13.18;;;8.98;;
42124;SDS011;27787;44.594;11.046;2023-05-24T11:10:33;14.17;;;9.37;;
42124;SDS011;27787;44.594;11.046;2023-05-24T11:13:18;19.08;;;8.70;;
42124;SDS011;27787;44.594;11.046;2023-05-24T11:16:06;18.63;;;11.20;;
42124;SDS011;27787;44.594;11.046;2023-05-24T11:18:53;18.38;;;10.55;;
42124;SDS011;27787;44.594;11.046;2023-05-24T11:21:38;13.20;;;9.65;;
42124;SDS011;27787;44.594;11.046;2023-05-24T11:24:23;14.77;;;9.65;;
42124;SDS011;27787;44.594;11.046;2023-05-24T11:27:12;14.77;;;9.52;;
42124;SDS011;27787;44.594;11.046;2023-05-24T11:29:57;14.27;;;9.55;;
42124;SDS011;27787;44.594;11.046;2023-05-24T11:32:46;15.30;;;8.95;;
42124;SDS011;27787;44.594;11.046;2023-05-24T11:35:30;13.93;;;9.15;;
42124;SDS011;27787;44.594;11.046;2023-05-24T11:38:15;14.15;;;9.68;;
42124;SDS011;27787;44.594;11.046;2023-05-24T11:41:00;15.60;;;9.18;;
42124;SDS011;27787;44.594;11.046;2023-05-24T11:43:44;14.57;;;9.68;;
42124;SDS011;27787;44.594;11.046;2023-05-24T11:46:29;14.73;;;9.32;;
42124;SDS011;27787;44.594;11.046;2023-05-24T11:49:15;19.85;;;9.27;;
42124;SDS011;27787;44.594;11.046;2023-05-24T11:52:03;14.75;;;9.32;;
42124;SDS011;27787;44.594;11.046;2023-05-24T11:54:48;15.53;;;9.60;;
42124;SDS011;27787;44.594;11.046;2023-05-24T11:57:35;13.77;;;9.63;;
42124;SDS011;27787;44.594;11.046;2023-05-24T12:00:24;14.40;;;9.20;;
42124;SDS011;27787;44.594;11.046;2023-05-24T12:03:08;17.67;;;9.80;;
42124;SDS011;27787;44.594;11.046;2023-05-24T12:05:55;17.58;;;9.65;;
42124;SDS011;27787;44.594;11.046;2023-05-24T12:08:39;15.02;;;9.82;;
42124;SDS011;27787;44.594;11.046;2023-05-24T12:11:24;18.05;;;10.80;;
42124;SDS011;27787;44.594;11.046;2023-05-24T12:14:12;17.77;;;9.97;;
42124;SDS011;27787;44.594;11.046;2023-05-24T12:17:00;16.42;;;9.70;;
42124;SDS011;27787;44.594;11.046;2023-05-24T12:19:44;16.52;;;8.73;;
42124;SDS011;27787;44.594;11.046;2023-05-24T12:22:33;11.73;;;8.93;;
42124;SDS011;27787;44.594;11.046;2023-05-24T12:25:17;13.48;;;8.65;;
42124;SDS011;27787;44.594;11.046;2023-05-24T12:28:04;14.73;;;7.97;;
42124;SDS011;27787;44.594;11.046;2023-05-24T12:30:48;15.57;;;9.15;;
42124;SDS011;27787;44.594;11.046;2023-05-24T12:33:32;12.13;;;7.85;;
42124;SDS011;27787;44.594;11.046;2023-05-24T12:36:17;14.05;;;7.95;;
42124;SDS011;27787;44.594;11.046;2023-05-24T12:42:02;26.52;;;9.43;;
42124;SDS011;27787;44.594;11.046;2023-05-24T12:44:47;11.77;;;8.30;;
42124;SDS011;27787;44.594;11.046;2023-05-24T12:47:34;14.43;;;8.27;;
42124;SDS011;27787;44.594;11.046;2023-05-24T12:50:19;11.97;;;8.93;;
42124;SDS011;27787;44.594;11.046;2023-05-24T12:53:04;15.20;;;8.55;;
42124;SDS011;27787;44.594;11.046;2023-05-24T12:55:49;12.65;;;8.82;;
42124;SDS011;27787;44.594;11.046;2023-05-24T12:58:38;15.95;;;8.68;;
42124;SDS011;27787;44.594;11.046;2023-05-24T13:01:23;12.13;;;8.20;;
42124;SDS011;27787;44.594;11.046;2023-05-24T13:04:08;13.55;;;7.88;;
42124;SDS011;27787;44.594;11.046;2023-05-24T13:06:53;13.27;;;8.52;;
42124;SDS011;27787;44.594;11.046;2023-05-24T13:09:38;12.00;;;7.32;;
42124;SDS011;27787;44.594;11.046;2023-05-24T13:12:22;11.05;;;7.63;;
42124;SDS011;27787;44.594;11.046;2023-05-24T13:15:06;12.68;;;7.60;;
42124;SDS011;27787;44.594;11.046;2023-05-24T13:17:51;12.45;;;7.10;;
42124;SDS011;27787;44.594;11.046;2023-05-24T13:23:20;11.80;;;7.68;;
42124;SDS011;27787;44.594;11.046;2023-05-24T13:26:05;11.18;;;7.32;;
42124;SDS011;27787;44.594;11.046;2023-05-24T13:28:50;11.30;;;7.57;;
42124;SDS011;27787;44.594;11.046;2023-05-24T13:31:34;9.93;;;7.00;;
42124;SDS011;27787;44.594;11.046;2023-05-24T13:34:20;12.18;;;7.25;;
42124;SDS011;27787;44.594;11.046;2023-05-24T13:37:04;10.30;;;7.00;;
42124;SDS011;27787;44.594;11.046;2023-05-24T13:39:50;12.77;;;7.18;;
42124;SDS011;27787;44.594;11.046;2023-05-24T13:42:34;10.70;;;3.80;;
42124;SDS011;27787;44.594;11.046;2023-05-24T13:45:19;6.28;;;3.65;;
42124;SDS011;27787;44.594;11.046;2023-05-24T13:48:03;15.35;;;3.45;;
42124;SDS011;27787;44.594;11.046;2023-05-24T13:50:48;11.95;;;4.20;;
42124;SDS011;27787;44.594;11.046;2023-05-24T13:53:33;9.25;;;3.47;;
42124;SDS011;27787;44.594;11.046;2023-05-24T13:56:17;5.55;;;4.13;;
42124;SDS011;27787;44.594;11.046;2023-05-24T13:59:01;5.55;;;3.45;;
42124;SDS011;27787;44.594;11.046;2023-05-24T14:01:46;6.40;;;3.20;;
42124;SDS011;27787;44.594;11.046;2023-05-24T14:04:30;5.90;;;3.17;;
42124;SDS011;27787;44.594;11.046;2023-05-24T14:07:15;10.23;;;2.83;;
42124;SDS011;27787;44.594;11.046;2023-05-24T14:09:59;7.80;;;2.88;;
42124;SDS011;27787;44.594;11.046;2023-05-24T14:12:43;5.78;;;3.25;;
42124;SDS011;27787;44.594;11.046;2023-05-24T14:15:27;8.57;;;3.20;;
42124;SDS011;27787;44.594;11.046;2023-05-24T14:18:12;10.50;;;3.35;;
42124;SDS011;27787;44.594;11.046;2023-05-24T14:20:57;7.93;;;2.93;;
42124;SDS011;27787;44.594;11.046;2023-05-24T14:23:41;4.85;;;3.25;;
42124;SDS011;27787;44.594;11.046;2023-05-24T14:26:25;7.50;;;2.97;;
42124;SDS011;27787;44.594;11.046;2023-05-24T14:29:10;7.43;;;2.85;;
42124;SDS011;27787;44.594;11.046;2023-05-24T14:31:54;6.07;;;2.78;;
42124;SDS011;27787;44.594;11.046;2023-05-24T14:34:38;5.70;;;3.20;;
42124;SDS011;27787;44.594;11.046;2023-05-24T14:37:22;5.40;;;3.30;;
42124;SDS011;27787;44.594;11.046;2023-05-24T14:40:06;6.50;;;3.00;;
42124;SDS011;27787;44.594;11.046;2023-05-24T14:42:51;7.97;;;2.80;;
42124;SDS011;27787;44.594;11.046;2023-05-24T14:45:36;4.70;;;3.00;;
42124;SDS011;27787;44.594;11.046;2023-05-24T14:48:24;11.07;;;4.05;;
42124;SDS011;27787;44.594;11.046;2023-05-24T14:51:08;9.50;;;4.07;;
42124;SDS011;27787;44.594;11.046;2023-05-24T14:53:52;8.30;;;3.90;;
42124;SDS011;27787;44.594;11.046;2023-05-24T14:56:36;8.05;;;3.53;;
42124;SDS011;27787;44.594;11.046;2023-05-24T14:59:20;6.38;;;3.60;;
42124;SDS011;27787;44.594;11.046;2023-05-24T15:02:04;11.85;;;3.90;;
42124;SDS011;27787;44.594;11.046;2023-05-24T15:04:49;7.07;;;3.87;;
42124;SDS011;27787;44.594;11.046;2023-05-24T15:07:32;6.30;;;4.05;;
42124;SDS011;27787;44.594;11.046;2023-05-24T15:10:16;8.52;;;3.83;;
42124;SDS011;27787;44.594;11.046;2023-05-24T15:13:01;13.10;;;3.50;;
42124;SDS011;27787;44.594;11.046;2023-05-24T15:15:46;5.40;;;3.50;;
42124;SDS011;27787;44.594;11.046;2023-05-24T15:18:30;8.98;;;4.30;;
42124;SDS011;27787;44.594;11.046;2023-05-24T15:21:19;11.63;;;3.65;;
42124;SDS011;27787;44.594;11.046;2023-05-24T15:24:05;8.82;;;4.00;;
42124;SDS011;27787;44.594;11.046;2023-05-24T15:26:49;11.97;;;5.20;;
42124;SDS011;27787;44.594;11.046;2023-05-24T15:29:38;9.45;;;3.97;;
42124;SDS011;27787;44.594;11.046;2023-05-24T15:32:23;10.25;;;4.57;;
42124;SDS011;27787;44.594;11.046;2023-05-24T15:35:09;10.38;;;5.00;;
42124;SDS011;27787;44.594;11.046;2023-05-24T15:37:54;10.60;;;4.65;;
42124;SDS011;27787;44.594;11.046;2023-05-24T15:40:43;9.75;;;4.53;;
42124;SDS011;27787;44.594;11.046;2023-05-24T15:43:28;7.32;;;4.55;;
42124;SDS011;27787;44.594;11.046;2023-05-24T15:46:14;11.52;;;4.32;;
42124;SDS011;27787;44.594;11.046;2023-05-24T15:48:58;12.10;;;4.95;;
42124;SDS011;27787;44.594;11.046;2023-05-24T15:51:42;8.15;;;4.60;;
42124;SDS011;27787;44.594;11.046;2023-05-24T15:54:26;13.20;;;5.25;;
42124;SDS011;27787;44.594;11.046;2023-05-24T15:57:11;9.25;;;5.03;;
42124;SDS011;27787;44.594;11.046;2023-05-24T15:59:55;6.57;;;4.57;;
42124;SDS011;27787;44.594;11.046;2023-05-24T16:02:40;6.35;;;4.25;;
42124;SDS011;27787;44.594;11.046;2023-05-24T16:05:24;11.82;;;4.97;;
42124;SDS011;27787;44.594;11.046;2023-05-24T16:08:10;9.13;;;4.95;;
42124;SDS011;27787;44.594;11.046;2023-05-24T16:10:55;6.95;;;3.97;;
42124;SDS011;27787;44.594;11.046;2023-05-24T16:13:40;6.93;;;4.10;;
42124;SDS011;27787;44.594;11.046;2023-05-24T16:16:24;10.98;;;4.55;;
42124;SDS011;27787;44.594;11.046;2023-05-24T16:19:09;9.90;;;4.60;;
42124;SDS011;27787;44.594;11.046;2023-05-24T16:21:53;5.95;;;3.90;;
42124;SDS011;27787;44.594;11.046;2023-05-24T16:24:38;10.73;;;5.28;;
42124;SDS011;27787;44.594;11.046;2023-05-24T16:27:22;6.97;;;4.60;;
42124;SDS011;27787;44.594;11.046;2023-05-24T16:30:07;7.28;;;4.32;;
42124;SDS011;27787;44.594;11.046;2023-05-24T16:32:51;10.02;;;4.35;;
42124;SDS011;27787;44.594;11.046;2023-05-24T16:35:36;7.07;;;4.07;;
42124;SDS011;27787;44.594;11.046;2023-05-24T16:38:20;9.90;;;4.30;;
42124;SDS011;27787;44.594;11.046;2023-05-24T16:41:05;9.38;;;4.40;;